Time;durP1;ratioP1;P1;durP2;ratioP2;P2;SDS_P1;SDS_P2;PMS_P1;PMS_P2;Temp;Humidity;BMP_temperature;BMP_pressure;BME280_temperature;BME280_humidity;BME280_pressure;Samples;Min_cycle;Max_cycle;Signal;HPM_P1;HPM_P2
2022/06/09 00:01:28;;;;;;;0.40;0.20;;;;;;;15.34;100.00;99627.41;5040918;28;20459;-76
2022/06/09 00:04:13;;;;;;;0.40;0.20;;;;;;;15.39;100.00;99632.53;5047456;28;20471;-76
2022/06/09 00:06:54;;;;;;;0.40;0.20;;;;;;;15.10;100.00;99629.75;5047146;28;20556;-76
2022/06/09 00:09:27;;;;;;;0.40;0.20;;;;;;;15.23;100.00;99627.22;5044707;28;20505;-76
2022/06/09 00:11:54;;;;;;;0.40;0.20;;;;;;;15.31;100.00;99638.31;5044492;28;20447;-77
2022/06/09 00:14:21;;;;;;;0.40;0.20;;;;;;;15.43;100.00;99630.53;5045612;28;20455;-76
2022/06/09 00:16:47;;;;;;;0.40;0.20;;;;;;;15.37;100.00;99634.44;5040041;28;21002;-76
2022/06/09 00:19:16;;;;;;;0.40;0.20;;;;;;;15.49;100.00;99652.47;5040122;28;20529;-76
2022/06/09 00:21:42;;;;;;;0.40;0.20;;;;;;;15.34;100.00;99651.53;5052919;28;20609;-76
2022/06/09 00:24:09;;;;;;;0.40;0.20;;;;;;;15.48;100.00;99653.38;5040916;28;20456;-76
2022/06/09 00:26:36;;;;;;;0.40;0.20;;;;;;;15.25;100.00;99644.03;5040304;28;20984;-76
2022/06/09 00:29:04;;;;;;;0.40;0.20;;;;;;;15.16;100.00;99635.69;5040140;28;20456;-76
2022/06/09 00:31:32;;;;;;;0.40;0.20;;;;;;;15.37;100.00;99655.88;5039365;28;20485;-76
2022/06/09 00:33:59;;;;;;;0.40;0.20;;;;;;;15.38;100.00;99654.91;5039017;28;20509;-76
2022/06/09 00:36:26;;;;;;;0.40;0.20;;;;;;;15.17;100.00;99654.31;5040804;28;20486;-76
2022/06/09 00:38:52;;;;;;;0.40;0.20;;;;;;;15.15;100.00;99653.56;5040311;28;20501;-76
2022/06/09 00:41:19;;;;;;;0.40;0.20;;;;;;;14.97;100.00;99654.63;5029737;28;20480;-76
2022/06/09 00:43:46;;;;;;;0.40;0.20;;;;;;;14.77;100.00;99658.41;5046891;28;20455;-76
2022/06/09 00:46:25;;;;;;;0.40;0.20;;;;;;;14.84;100.00;99664.28;5040127;28;20486;-76
2022/06/09 00:49:00;;;;;;;0.40;0.20;;;;;;;14.79;100.00;99667.19;5038716;28;20454;-76
2022/06/09 00:51:31;;;;;;;0.40;0.20;;;;;;;14.57;100.00;99669.34;5043322;28;20455;-76
2022/06/09 00:54:07;;;;;;;0.40;0.20;;;;;;;14.43;100.00;99676.28;5047003;28;20460;-77
2022/06/09 00:56:37;;;;;;;0.50;0.40;;;;;;;14.43;100.00;99678.09;5043970;28;20974;-76
2022/06/09 00:59:04;;;;;;;0.40;0.20;;;;;;;14.31;100.00;99687.63;5039938;28;20497;-76
2022/06/09 01:01:32;;;;;;;0.40;0.23;;;;;;;14.38;100.00;99691.69;5039011;28;20447;-76
2022/06/09 01:04:04;;;;;;;0.40;0.20;;;;;;;14.08;100.00;99691.53;5046424;28;21008;-76
2022/06/09 01:06:34;;;;;;;0.40;0.20;;;;;;;14.15;100.00;99687.59;5046332;28;20459;-76
2022/06/09 01:09:10;;;;;;;0.40;0.20;;;;;;;14.02;100.00;99696.34;5040053;28;20443;-76
2022/06/09 01:11:38;;;;;;;0.77;0.77;;;;;;;13.75;100.00;99674.59;5036152;28;20943;-76
2022/06/09 01:14:07;;;;;;;0.40;0.20;;;;;;;13.93;100.00;99693.19;5043160;28;20518;-76
2022/06/09 01:17:03;;;;;;;0.40;0.20;;;;;;;13.85;100.00;99692.75;5035618;28;20475;-76
2022/06/09 01:19:51;;;;;;;0.40;0.20;;;;;;;13.82;100.00;99692.00;5030497;28;20447;-76
2022/06/09 01:22:33;;;;;;;0.40;0.20;;;;;;;13.87;100.00;99688.19;5050970;28;20918;-76
2022/06/09 01:25:24;;;;;;;0.40;0.30;;;;;;;13.97;100.00;99690.34;5045579;28;20471;-76
2022/06/09 01:28:14;;;;;;;0.40;0.20;;;;;;;13.92;100.00;99687.94;5045523;28;20451;-76
2022/06/09 01:30:59;;;;;;;0.40;0.20;;;;;;;13.85;100.00;99689.22;5045984;28;20450;-76
2022/06/09 01:33:37;;;;;;;0.40;0.20;;;;;;;13.56;100.00;99696.88;5042385;28;20446;-76
2022/06/09 01:36:10;;;;;;;0.40;0.20;;;;;;;13.61;100.00;99676.16;5037535;28;20500;-76
2022/06/09 01:38:52;;;;;;;0.40;0.20;;;;;;;13.65;100.00;99687.53;5039005;28;20873;-76
2022/06/09 01:41:22;;;;;;;0.40;0.20;;;;;;;13.63;100.00;99692.09;5039012;28;20955;-76
2022/06/09 01:43:51;;;;;;;0.40;0.20;;;;;;;13.57;100.00;99697.75;5037548;28;20502;-76
2022/06/09 01:46:34;;;;;;;0.40;0.20;;;;;;;13.53;100.00;99691.69;5041608;28;20482;-76
2022/06/09 01:49:10;;;;;;;0.40;0.20;;;;;;;13.40;100.00;99690.56;5045451;28;20960;-76
2022/06/09 01:51:40;;;;;;;0.40;0.20;;;;;;;13.31;100.00;99686.56;5044911;28;20446;-76
2022/06/09 01:54:17;;;;;;;0.40;0.20;;;;;;;13.30;100.00;99686.66;5039130;28;20846;-76
2022/06/09 01:56:59;;;;;;;0.40;0.20;;;;;;;13.37;100.00;99697.88;5038489;28;20927;-76
2022/06/09 01:59:32;;;;;;;0.40;0.20;;;;;;;13.28;100.00;99686.69;5042124;28;20452;-76
2022/06/09 02:02:12;;;;;;;0.40;0.20;;;;;;;13.53;100.00;99693.50;5045190;28;20530;-76
2022/06/09 02:04:44;;;;;;;0.40;0.20;;;;;;;13.47;100.00;99688.47;5044133;28;20450;-75
2022/06/09 02:07:13;;;;;;;0.40;0.20;;;;;;;13.45;100.00;99677.88;5027579;28;20462;-76
2022/06/09 02:09:40;;;;;;;0.40;0.20;;;;;;;13.59;100.00;99679.84;5038179;28;20524;-76
2022/06/09 02:12:16;;;;;;;0.93;0.60;;;;;;;13.53;100.00;99680.16;5043895;28;20874;-76
2022/06/09 02:14:49;;;;;;;0.40;0.20;;;;;;;13.54;100.00;99690.75;5044255;28;20885;-76
2022/06/09 02:17:16;;;;;;;0.40;0.20;;;;;;;13.30;100.00;99692.00;5040771;28;20439;-76
2022/06/09 02:19:45;;;;;;;0.40;0.20;;;;;;;13.15;100.00;99679.34;5038130;28;20462;-76
2022/06/09 02:22:13;;;;;;;0.40;0.20;;;;;;;13.19;100.00;99679.16;5049370;28;21096;-76
2022/06/09 02:24:39;;;;;;;0.37;0.20;;;;;;;13.37;100.00;99689.88;5040011;28;20459;-76
2022/06/09 02:27:07;;;;;;;6.63;2.53;;;;;;;13.47;100.00;99686.66;5044268;28;20539;-76
2022/06/09 02:29:33;;;;;;;0.40;0.20;;;;;;;13.28;100.00;99680.50;5047948;28;20803;-76
2022/06/09 02:32:00;;;;;;;0.40;0.20;;;;;;;13.32;100.00;99700.78;5046622;28;20443;-76
2022/06/09 02:34:27;;;;;;;0.40;0.20;;;;;;;13.30;100.00;99705.34;5041038;28;20871;-76
2022/06/09 02:36:55;;;;;;;0.40;0.20;;;;;;;13.45;100.00;99704.56;5044735;28;20471;-76
2022/06/09 02:39:22;;;;;;;0.40;0.20;;;;;;;13.74;100.00;99708.44;5048998;28;20563;-76
2022/06/09 02:41:48;;;;;;;0.40;0.20;;;;;;;14.01;100.00;99716.00;5045594;28;20844;-76
2022/06/09 02:44:15;;;;;;;0.40;0.20;;;;;;;13.76;100.00;99724.41;5036228;28;20959;-76
2022/06/09 02:46:41;;;;;;;0.40;0.20;;;;;;;13.82;100.00;99722.25;5046939;28;20486;-76
2022/06/09 02:49:08;;;;;;;0.40;0.20;;;;;;;14.02;100.00;99715.91;5040958;28;20454;-76
2022/06/09 02:51:38;;;;;;;0.40;0.20;;;;;;;14.03;100.00;99717.63;5044019;28;20486;-76
2022/06/09 02:54:10;;;;;;;0.40;0.20;;;;;;;13.82;100.00;99719.59;5049109;28;20451;-76
2022/06/09 02:56:37;;;;;;;0.40;0.20;;;;;;;13.88;100.00;99716.63;5047455;28;20522;-76
2022/06/09 02:59:03;;;;;;;0.40;0.20;;;;;;;13.87;100.00;99719.38;5041266;28;20505;-76
2022/06/09 03:01:31;;;;;;;8.40;0.83;;;;;;;13.89;100.00;99714.81;5042502;28;20460;-76
2022/06/09 03:03:57;;;;;;;0.73;0.73;;;;;;;13.81;100.00;99709.84;5035580;28;20537;-76
2022/06/09 03:06:24;;;;;;;0.40;0.20;;;;;;;13.56;100.00;99718.22;5049113;28;20979;-76
2022/06/09 03:08:51;;;;;;;0.40;0.30;;;;;;;13.45;100.00;99719.72;5041407;28;20893;-76
2022/06/09 03:11:17;;;;;;;0.40;0.20;;;;;;;13.39;100.00;99720.03;5025544;28;20941;-76
2022/06/09 03:13:45;;;;;;;0.33;0.20;;;;;;;13.43;100.00;99726.94;5041208;28;20505;-76
2022/06/09 03:16:14;;;;;;;0.60;0.60;;;;;;;13.36;100.00;99734.38;5053593;28;20497;-76
2022/06/09 03:18:42;;;;;;;0.40;0.20;;;;;;;13.51;100.00;99727.44;5042435;28;20471;-76
2022/06/09 03:21:11;;;;;;;0.30;0.20;;;;;;;13.40;100.00;99727.94;5041139;28;20525;-76
2022/06/09 03:23:38;;;;;;;0.30;0.20;;;;;;;13.32;100.00;99736.34;5036848;28;20500;-76
2022/06/09 03:26:05;;;;;;;1.07;1.07;;;;;;;13.45;100.00;99735.75;5032252;28;20456;-76
2022/06/09 03:28:32;;;;;;;0.40;0.20;;;;;;;13.36;100.00;99733.53;5046422;28;20440;-76
2022/06/09 03:30:59;;;;;;;0.40;0.20;;;;;;;13.30;100.00;99745.38;5048835;28;20499;-77
2022/06/09 03:33:26;;;;;;;0.40;0.20;;;;;;;13.19;100.00;99735.22;5045158;28;20457;-77
2022/06/09 03:35:53;;;;;;;0.33;0.20;;;;;;;13.60;100.00;99745.66;5042417;28;20990;-76
2022/06/09 03:38:19;;;;;;;0.40;0.20;;;;;;;13.49;100.00;99754.22;5047449;28;20872;-77
2022/06/09 03:40:46;;;;;;;0.30;0.20;;;;;;;13.45;100.00;99747.28;5033157;28;20444;-76
2022/06/09 03:43:13;;;;;;;0.30;0.20;;;;;;;13.78;100.00;99760.75;5044499;28;20552;-76
2022/06/09 03:45:40;;;;;;;0.40;0.40;;;;;;;13.47;100.00;99756.09;5040936;28;20833;-76
2022/06/09 03:48:06;;;;;;;0.30;0.20;;;;;;;14.04;100.00;99763.94;5043880;28;20960;-76
2022/06/09 03:50:34;;;;;;;0.40;0.30;;;;;;;13.65;100.00;99770.34;5047853;28;20455;-76
2022/06/09 03:53:00;;;;;;;0.30;0.20;;;;;;;13.91;100.00;99769.03;5044794;28;20985;-76
2022/06/09 03:55:27;;;;;;;0.30;0.20;;;;;;;13.89;100.00;99771.78;5039539;28;20474;-76
2022/06/09 03:57:54;;;;;;;0.40;0.40;;;;;;;13.91;100.00;99767.22;5043753;28;20463;-76
2022/06/09 04:00:29;;;;;;;0.40;0.20;;;;;;;14.07;100.00;99758.41;5047425;28;20953;-76
2022/06/09 04:02:56;;;;;;;0.40;0.20;;;;;;;14.15;100.00;99766.91;5044957;28;20551;-77
2022/06/09 04:05:23;;;;;;;0.30;0.20;;;;;;;14.09;100.00;99776.09;5040811;28;20521;-77
2022/06/09 04:07:50;;;;;;;1.23;1.13;;;;;;;14.13;100.00;99783.03;5041368;28;20455;-77
2022/06/09 04:10:25;;;;;;;0.40;0.40;;;;;;;13.71;100.00;99786.06;5043558;28;20459;-77
2022/06/09 04:12:51;;;;;;;0.30;0.20;;;;;;;13.85;100.00;99788.91;5035056;28;20483;-77
2022/06/09 04:15:20;;;;;;;0.30;0.20;;;;;;;13.79;100.00;99794.56;5047555;28;20468;-77
2022/06/09 04:17:47;;;;;;;0.30;0.20;;;;;;;13.92;100.00;99793.00;5053098;28;20553;-78
2022/06/09 04:20:17;;;;;;;0.40;0.20;;;;;;;13.89;100.00;99794.97;5051772;28;20943;-78
2022/06/09 04:22:43;;;;;;;0.40;0.20;;;;;;;13.93;100.00;99802.75;5062408;28;20491;-78
2022/06/09 04:25:16;;;;;;;0.40;0.20;;;;;;;14.02;100.00;99803.22;5041431;28;20529;-76
2022/06/09 04:27:43;;;;;;;0.40;0.20;;;;;;;13.99;100.00;99796.25;5049169;28;20447;-77
2022/06/09 04:30:10;;;;;;;0.40;0.20;;;;;;;14.31;100.00;99799.94;5042721;28;20461;-76
2022/06/09 04:32:37;;;;;;;0.30;0.20;;;;;;;15.00;100.00;99810.53;5042280;28;20501;-77
2022/06/09 04:35:05;;;;;;;0.40;0.20;;;;;;;15.58;100.00;99820.69;5044060;28;20502;-77
2022/06/09 04:40:16;;;;;;;0.40;0.20;;;;;;;17.02;100.00;99806.78;5033055;28;20833;-77
2022/06/09 04:42:43;;;;;;;0.40;0.33;;;;;;;17.09;100.00;99822.41;5037467;28;20902;-77
2022/06/09 04:45:10;;;;;;;0.40;0.20;;;;;;;17.59;99.85;99825.53;5041331;28;20511;-77
2022/06/09 04:47:36;;;;;;;0.40;0.20;;;;;;;17.60;100.00;99813.81;5046951;28;20518;-77
2022/06/09 04:50:04;;;;;;;0.40;0.20;;;;;;;18.05;98.60;99826.06;5046052;28;20524;-76
2022/06/09 04:52:31;;;;;;;0.40;0.20;;;;;;;18.26;97.35;99827.31;5040755;28;20478;-76
2022/06/09 04:54:58;;;;;;;0.50;0.47;;;;;;;18.30;96.13;99819.91;5040493;28;21052;-76
2022/06/09 04:57:25;;;;;;;0.40;0.20;;;;;;;18.49;97.53;99822.19;5047219;28;20497;-77
2022/06/09 04:59:52;;;;;;;0.40;0.20;;;;;;;18.59;95.77;99821.44;5046782;28;20455;-77
2022/06/09 05:02:19;;;;;;;1.23;1.13;;;;;;;19.12;94.73;99829.47;5060616;23;20537;-49
2022/06/09 05:04:46;;;;;;;0.40;0.20;;;;;;;19.23;92.16;99832.25;5052868;28;20487;-49
2022/06/09 05:07:12;;;;;;;0.40;0.20;;;;;;;19.29;91.58;99833.63;5046196;28;20541;-49
2022/06/09 05:09:39;;;;;;;0.40;0.20;;;;;;;19.19;91.98;99837.00;5043213;28;20955;-51
2022/06/09 05:12:06;;;;;;;0.40;0.20;;;;;;;19.43;90.91;99850.53;5026158;28;20815;-49
2022/06/09 05:14:33;;;;;;;0.40;0.20;;;;;;;19.84;91.47;99844.00;5039090;28;20477;-49
2022/06/09 05:16:59;;;;;;;0.40;0.20;;;;;;;19.75;90.84;99840.16;5039983;28;20516;-49
2022/06/09 05:19:26;;;;;;;0.50;0.40;;;;;;;19.84;91.07;99854.78;5039427;28;20813;-50
2022/06/09 05:21:52;;;;;;;0.50;0.33;;;;;;;20.09;89.51;99851.13;5051487;28;20450;-51
2022/06/09 05:24:19;;;;;;;0.40;0.30;;;;;;;20.15;88.82;99860.59;5039003;28;20547;-50
2022/06/09 05:26:46;;;;;;;0.40;0.20;;;;;;;20.57;86.99;99860.09;5045003;28;20969;-51
2022/06/09 05:29:13;;;;;;;0.40;0.20;;;;;;;20.30;86.97;99873.81;5046067;28;20520;-50
2022/06/09 05:31:40;;;;;;;0.40;0.20;;;;;;;20.77;87.02;99880.13;5040000;28;20442;-50
2022/06/09 05:34:08;;;;;;;0.40;0.20;;;;;;;20.83;85.65;99873.38;5038986;28;20451;-51
2022/06/09 05:36:34;;;;;;;0.77;0.77;;;;;;;20.29;85.73;99882.88;5044354;28;20472;-51
2022/06/09 05:47:21;;;;;;;0.40;0.20;;;;;;;20.40;91.09;99891.00;5045401;28;20517;-49
2022/06/09 05:49:49;;;;;;;0.50;0.50;;;;;;;20.42;87.53;99888.22;5041916;28;20442;-49
2022/06/09 05:52:19;;;;;;;4.53;1.80;;;;;;;20.68;86.32;99894.34;5038702;28;20509;-48
2022/06/09 05:54:46;;;;;;;0.40;0.20;;;;;;;20.60;87.02;99889.53;5040999;28;20944;-48
2022/06/09 05:57:12;;;;;;;0.40;0.30;;;;;;;20.46;87.33;99895.13;5045186;28;20984;-48
2022/06/09 05:59:39;;;;;;;0.40;0.20;;;;;;;20.62;87.32;99895.69;5042183;28;20447;-48
2022/06/09 06:02:08;;;;;;;0.40;0.20;;;;;;;21.05;84.41;99892.34;5038673;28;20520;-48
2022/06/09 06:04:35;;;;;;;0.40;0.20;;;;;;;20.72;85.67;99906.66;5040693;28;20495;-48
2022/06/09 06:07:01;;;;;;;0.40;0.20;;;;;;;20.56;85.45;99906.09;5043987;28;20840;-48
2022/06/09 06:09:28;;;;;;;0.40;0.20;;;;;;;20.67;86.20;99915.09;5044594;28;20454;-48
2022/06/09 06:11:55;;;;;;;0.40;0.20;;;;;;;21.52;85.12;99912.13;5045831;28;20869;-50
2022/06/09 06:14:24;;;;;;;0.40;0.20;;;;;;;20.46;86.09;99919.44;5044108;28;20505;-48
2022/06/09 06:16:51;;;;;;;0.40;0.23;;;;;;;21.09;84.23;99920.00;5038261;28;20499;-48
2022/06/09 06:19:19;;;;;;;0.40;0.20;;;;;;;21.08;84.95;99926.38;5038958;28;20452;-48
2022/06/09 06:21:47;;;;;;;5.10;1.70;;;;;;;21.07;84.58;99920.13;5038506;28;20860;-48
2022/06/09 06:24:14;;;;;;;0.40;0.30;;;;;;;20.95;83.78;99929.19;5038810;28;20546;-48
2022/06/09 06:26:41;;;;;;;0.40;0.20;;;;;;;20.20;85.24;99934.00;5042830;28;21056;-47
2022/06/09 06:29:19;;;;;;;0.40;0.20;;;;;;;20.76;85.28;99934.28;5044863;28;20446;-48
2022/06/09 06:31:46;;;;;;;0.50;0.50;;;;;;;20.88;83.47;99942.31;5041091;28;20511;-47
2022/06/09 06:34:13;;;;;;;0.50;0.40;;;;;;;20.67;85.17;99943.94;5038032;28;20465;-48
2022/06/09 06:36:40;;;;;;;0.40;0.30;;;;;;;21.08;84.25;99943.47;5041937;28;20464;-48
2022/06/09 06:39:06;;;;;;;0.40;0.20;;;;;;;21.06;82.56;99945.44;5045027;28;20721;-49
2022/06/09 06:41:33;;;;;;;0.40;0.30;;;;;;;20.65;83.49;99956.72;5041060;28;20488;-49
2022/06/09 06:44:00;;;;;;;0.40;0.30;;;;;;;20.65;83.85;99959.41;5038350;28;20477;-48
2022/06/09 06:46:27;;;;;;;0.40;0.30;;;;;;;20.77;83.12;99960.31;5042009;28;20535;-48
2022/06/09 06:48:55;;;;;;;0.40;0.20;;;;;;;20.59;82.98;99966.16;5045248;28;20455;-48
2022/06/09 06:51:23;;;;;;;0.40;0.20;;;;;;;20.45;85.07;99963.63;5041467;28;20453;-48
2022/06/09 06:53:50;;;;;;;0.40;0.20;;;;;;;19.80;87.22;99966.59;5037648;28;20504;-49
2022/06/09 06:56:16;;;;;;;0.40;0.30;;;;;;;19.74;84.43;99976.00;5041348;28;20521;-47
2022/06/09 06:58:43;;;;;;;0.40;0.30;;;;;;;19.80;84.19;99970.13;5044954;28;20869;-48
2022/06/09 07:01:10;;;;;;;0.50;0.37;;;;;;;19.47;85.59;99983.31;5042456;28;20520;-48
2022/06/09 07:03:37;;;;;;;0.40;0.20;;;;;;;19.65;86.84;99979.34;5037779;28;20527;-47
2022/06/09 07:06:05;;;;;;;0.50;0.30;;;;;;;19.34;87.92;99982.44;5041376;28;20991;-51
2022/06/09 07:08:33;;;;;;;0.40;0.20;;;;;;;19.44;86.86;99981.66;5049593;28;20470;-47
2022/06/09 07:10:59;;;;;;;0.40;0.20;;;;;;;19.47;86.54;99986.00;5044950;28;20450;-48
2022/06/09 07:13:26;;;;;;;0.40;0.20;;;;;;;18.93;86.46;99992.41;5041541;28;20470;-48
2022/06/09 07:15:53;;;;;;;0.40;0.20;;;;;;;18.52;88.73;99991.59;5043016;28;21019;-47
2022/06/09 07:18:27;;;;;;;0.40;0.20;;;;;;;18.48;88.48;99993.59;5048456;28;20550;-48
2022/06/09 07:20:54;;;;;;;0.40;0.20;;;;;;;18.52;89.23;99995.13;5035293;28;20455;-48
2022/06/09 07:23:22;;;;;;;0.40;0.30;;;;;;;19.01;88.24;99999.94;5047968;28;20459;-48
2022/06/09 07:25:48;;;;;;;0.40;0.20;;;;;;;18.75;88.01;100009.78;5047779;28;21001;-48
2022/06/09 07:28:15;;;;;;;0.40;0.20;;;;;;;19.14;86.03;100003.53;5041146;28;20863;-49
2022/06/09 07:30:42;;;;;;;0.40;0.37;;;;;;;18.91;87.14;99994.34;5041347;28;20498;-51
2022/06/09 07:33:09;;;;;;;0.40;0.20;;;;;;;19.44;86.51;99996.97;5048037;28;20447;-49
2022/06/09 07:35:37;;;;;;;0.40;0.30;;;;;;;19.76;85.80;100001.00;5048056;28;20454;-47
2022/06/09 07:38:08;;;;;;;0.40;0.20;;;;;;;19.82;84.85;99999.69;5042071;28;20980;-47
2022/06/09 07:40:37;;;;;;;0.40;0.20;;;;;;;20.26;84.52;100004.56;5041109;28;20459;-47
2022/06/09 07:43:04;;;;;;;0.40;0.20;;;;;;;20.90;81.80;99999.81;5046212;28;20510;-47
2022/06/09 07:45:31;;;;;;;0.40;0.30;;;;;;;20.83;81.56;100005.78;5048484;28;20486;-48
2022/06/09 07:47:59;;;;;;;0.40;0.20;;;;;;;20.79;81.18;100018.66;5042564;28;20502;-47
2022/06/09 07:50:25;;;;;;;0.40;0.30;;;;;;;20.73;81.63;100010.19;5040842;28;20517;-48
2022/06/09 07:52:52;;;;;;;0.40;0.20;;;;;;;20.81;80.75;100014.00;5045851;28;20488;-47
2022/06/09 07:55:22;;;;;;;0.40;0.20;;;;;;;20.93;79.93;100009.50;5047136;28;20861;-48
2022/06/09 07:57:50;;;;;;;0.40;0.20;;;;;;;20.95;79.89;100021.94;5044084;28;20528;-48
2022/06/09 08:00:17;;;;;;;0.40;0.20;;;;;;;20.93;80.85;100018.47;5040583;28;20873;-50
2022/06/09 08:02:44;;;;;;;0.40;0.30;;;;;;;21.14;80.80;100025.94;5043202;28;20529;-48
2022/06/09 08:05:15;;;;;;;0.40;0.20;;;;;;;21.49;77.05;100018.69;5046473;28;20567;-49
2022/06/09 08:07:42;;;;;;;0.40;0.20;;;;;;;21.18;78.75;100028.28;5043821;28;20441;-49
2022/06/09 08:10:13;;;;;;;0.40;0.20;;;;;;;21.27;78.65;100024.91;5039464;28;20426;-49
2022/06/09 08:12:40;;;;;;;0.40;0.30;;;;;;;21.03;78.05;100037.56;5041408;28;20440;-49
2022/06/09 08:15:07;;;;;;;0.40;0.20;;;;;;;21.77;78.27;100035.47;5045375;28;20436;-49
2022/06/09 08:17:34;;;;;;;0.40;0.20;;;;;;;21.07;76.98;100038.19;5045002;28;20497;-49
2022/06/09 08:20:01;;;;;;;0.40;0.27;;;;;;;20.84;78.65;100034.56;5039087;28;20447;-49
2022/06/09 08:22:28;;;;;;;0.40;0.20;;;;;;;20.60;79.57;100043.50;5050785;28;20425;-49
2022/06/09 08:24:55;;;;;;;0.57;0.40;;;;;;;20.68;79.80;100041.06;5038812;28;20465;-49
2022/06/09 08:27:23;;;;;;;0.40;0.20;;;;;;;20.74;78.48;100047.03;5041254;28;20494;-48
2022/06/09 08:29:51;;;;;;;0.50;0.43;;;;;;;20.59;80.44;100052.59;5048180;28;20456;-49
2022/06/09 08:32:18;;;;;;;0.50;0.30;;;;;;;20.63;79.67;100056.78;5045961;28;20524;-50
2022/06/09 08:34:44;;;;;;;0.40;0.20;;;;;;;20.83;79.15;100057.13;5033328;28;20447;-48
2022/06/09 08:37:11;;;;;;;0.40;0.20;;;;;;;20.87;79.61;100061.34;5045846;28;20524;-49
2022/06/09 08:39:38;;;;;;;0.50;0.30;;;;;;;20.55;81.07;100055.59;5036321;28;20801;-50
2022/06/09 08:42:38;;;;;;;0.40;0.20;;;;;;;20.58;81.15;100061.66;5039958;28;20450;-49
2022/06/09 08:45:11;;;;;;;0.50;0.40;;;;;;;20.33;81.99;100067.09;5043977;28;20514;-47
2022/06/09 08:47:43;;;;;;;1.23;1.23;;;;;;;19.98;82.34;100065.06;5038852;28;20470;-47
2022/06/09 08:50:30;;;;;;;0.40;0.20;;;;;;;19.98;81.35;100067.78;5039113;28;20418;-47
2022/06/09 08:53:21;;;;;;;0.40;0.30;;;;;;;19.80;83.17;100075.34;5042166;28;20443;-47
2022/06/09 08:55:57;;;;;;;0.40;0.20;;;;;;;19.88;84.09;100084.75;5045700;28;20435;-47
2022/06/09 08:58:24;;;;;;;0.40;0.20;;;;;;;19.74;84.86;100081.19;5045702;28;20524;-47
2022/06/09 09:01:06;;;;;;;0.40;0.20;;;;;;;19.79;83.13;100087.09;5039966;28;20493;-47
2022/06/09 09:03:45;;;;;;;0.40;0.20;;;;;;;19.71;83.28;100085.91;4998790;28;1162526;-47
2022/06/09 09:06:30;;;;;;;0.40;0.20;;;;;;;19.90;82.30;100086.38;5040785;28;20498;-48
2022/06/09 09:09:24;;;;;;;0.40;0.20;;;;;;;19.80;81.14;100091.53;5027503;28;20803;-47
2022/06/09 09:12:11;;;;;;;0.40;0.20;;;;;;;19.47;82.30;100105.50;5035854;28;20447;-47
2022/06/09 09:14:41;;;;;;;0.40;0.20;;;;;;;19.75;81.89;100095.53;5037974;28;20497;-48
2022/06/09 09:17:19;;;;;;;0.40;0.20;;;;;;;19.32;84.27;100100.25;5040933;28;20592;-49
2022/06/09 09:20:13;;;;;;;0.40;0.30;;;;;;;19.66;84.03;100106.94;5039357;28;20474;-47
2022/06/09 09:23:06;;;;;;;0.40;0.20;;;;;;;19.26;85.60;100106.94;5051230;28;20443;-48
2022/06/09 09:25:37;;;;;;;0.40;0.20;;;;;;;19.50;85.28;100105.28;5043912;28;20540;-48
2022/06/09 09:28:16;;;;;;;0.40;0.20;;;;;;;19.35;85.70;100110.84;5033615;28;20813;-48
2022/06/09 09:30:49;;;;;;;0.40;0.20;;;;;;;19.70;85.10;100117.41;5045696;28;21058;-47
2022/06/09 09:33:19;;;;;;;0.40;0.20;;;;;;;19.55;84.28;100117.59;5039905;28;20450;-48
2022/06/09 09:35:49;;;;;;;0.40;0.30;;;;;;;19.88;83.91;100114.44;5039395;28;20447;-47
2022/06/09 09:38:19;;;;;;;0.40;0.30;;;;;;;20.03;83.38;100122.31;5042542;28;20468;-47
2022/06/09 09:40:49;;;;;;;0.40;0.20;;;;;;;19.78;82.84;100123.16;5030642;28;20455;-48
2022/06/09 09:43:26;;;;;;;0.40;0.20;;;;;;;19.69;83.38;100129.16;5042627;28;20504;-47
2022/06/09 09:45:55;;;;;;;0.40;0.20;;;;;;;19.75;83.39;100128.75;5038852;28;20510;-48
2022/06/09 09:48:22;;;;;;;0.40;0.20;;;;;;;20.34;82.35;100122.81;5040272;28;20468;-48
2022/06/09 09:51:13;;;;;;;11.63;2.30;;;;;;;20.40;80.25;100127.75;5045283;28;20456;-48
2022/06/09 09:54:05;;;;;;;0.40;0.30;;;;;;;20.20;83.08;100140.00;5045503;28;20442;-47
2022/06/09 09:56:37;;;;;;;0.40;0.20;;;;;;;20.23;81.83;100139.78;5045079;28;20466;-48
2022/06/09 09:59:24;;;;;;;0.40;0.20;;;;;;;20.57;81.42;100137.41;5045532;28;20483;-48
2022/06/09 10:08:44;;;;;;;0.50;0.30;;;;;;;20.00;82.43;100159.41;5045257;28;20493;-48
2022/06/09 10:14:01;;;;;;;0.40;0.20;;;;;;;20.62;80.32;100160.41;5030354;28;20520;-50
2022/06/09 10:16:31;;;;;;;4.30;1.13;;;;;;;20.90;80.02;100163.78;5037936;28;21001;-48
2022/06/09 10:19:20;;;;;;;0.40;0.20;;;;;;;20.77;78.31;100166.53;5038944;28;20474;-48
2022/06/09 10:22:20;;;;;;;0.40;0.20;;;;;;;20.93;77.98;100177.94;5041659;28;20500;-49
2022/06/09 10:25:05;;;;;;;0.50;0.30;;;;;;;21.61;75.77;100183.75;5038377;28;20486;-48
2022/06/09 10:27:36;;;;;;;0.40;0.20;;;;;;;21.50;77.02;100180.00;5037981;28;20518;-48
2022/06/09 10:30:11;;;;;;;0.40;0.30;;;;;;;21.33;78.38;100180.41;5043309;28;20448;-49
2022/06/09 10:32:56;;;;;;;0.40;0.20;;;;;;;21.06;75.32;100187.84;5045120;28;20439;-48
2022/06/09 10:35:58;;;;;;;0.40;0.20;;;;;;;21.20;75.51;100184.97;5045233;28;20443;-48
2022/06/09 10:38:31;;;;;;;0.40;0.20;;;;;;;21.10;77.49;100186.63;5040944;28;20472;-48
2022/06/09 10:41:01;;;;;;;0.40;0.20;;;;;;;21.28;76.77;100180.78;5036596;28;20422;-50
2022/06/09 10:43:54;;;;;;;0.40;0.20;;;;;;;21.46;75.46;100181.22;5038991;28;20433;-48
2022/06/09 10:46:39;;;;;;;0.40;0.20;;;;;;;21.61;76.11;100195.44;5034217;28;20443;-48
2022/06/09 10:55:24;;;;;;;0.57;0.33;;;;;;;20.91;76.26;100188.00;5048918;28;20801;-48
2022/06/09 10:58:03;;;;;;;0.40;0.30;;;;;;;20.61;78.41;100196.47;5046025;28;21072;-48
2022/06/09 11:00:39;;;;;;;0.40;0.27;;;;;;;20.99;76.64;100199.13;5041599;28;20446;-48
2022/06/09 11:03:16;;;;;;;0.40;0.20;;;;;;;20.97;77.98;100200.22;5041185;28;20895;-48
2022/06/09 11:05:59;;;;;;;0.40;0.20;;;;;;;21.00;77.91;100191.88;5046623;28;20486;-49
2022/06/09 11:08:50;;;;;;;0.40;0.20;;;;;;;21.54;76.80;100192.34;5047672;28;20472;-47
2022/06/09 11:11:25;;;;;;;0.40;0.20;;;;;;;21.46;77.88;100193.88;5048286;28;20530;-48
2022/06/09 11:14:01;;;;;;;0.40;0.20;;;;;;;21.46;78.46;100188.47;5044178;28;20425;-49
2022/06/09 11:16:53;;;;;;;0.40;0.20;;;;;;;21.79;75.49;100195.84;5040548;28;20511;-49
2022/06/09 11:19:28;;;;;;;0.40;0.20;;;;;;;21.62;76.58;100197.16;5041938;28;20443;-49
2022/06/09 11:21:55;;;;;;;0.40;0.30;;;;;;;21.70;74.61;100196.59;5054396;28;20477;-51
2022/06/09 11:24:49;;;;;;;0.40;0.20;;;;;;;21.62;75.64;100191.75;5041143;28;20466;-48
2022/06/09 11:27:30;;;;;;;0.63;0.57;;;;;;;21.65;77.04;100196.91;5043343;28;20438;-48
2022/06/09 11:30:15;;;;;;;0.40;0.20;;;;;;;21.80;75.31;100198.47;5029324;28;20442;-48
2022/06/09 11:33:02;;;;;;;0.40;0.30;;;;;;;21.77;74.67;100200.53;5041171;28;20447;-48
2022/06/09 11:35:59;;;;;;;0.40;0.20;;;;;;;22.08;73.36;100191.81;5042116;28;20418;-49
2022/06/09 11:38:53;;;;;;;0.40;0.30;;;;;;;22.34;74.05;100188.88;5034644;28;20471;-49
2022/06/09 11:41:42;;;;;;;0.40;0.20;;;;;;;22.95;70.05;100197.56;5030575;28;20476;-48
2022/06/09 11:44:27;;;;;;;0.40;0.20;;;;;;;22.62;69.46;100184.88;5047656;28;20496;-48
2022/06/09 11:47:00;;;;;;;0.50;0.30;;;;;;;22.72;70.80;100172.28;5047711;28;20459;-48
2022/06/09 11:49:37;;;;;;;4.40;1.60;;;;;;;23.60;66.25;100181.28;5047255;28;20474;-49
2022/06/09 11:52:24;;;;;;;0.80;0.80;;;;;;;23.72;69.47;100175.81;5047776;28;20471;-48
2022/06/09 11:54:54;;;;;;;0.40;0.20;;;;;;;23.80;66.81;100173.28;5045562;28;20496;-48
2022/06/09 11:57:36;;;;;;;0.40;0.30;;;;;;;23.38;68.98;100177.75;5039323;28;20468;-48
2022/06/09 12:00:05;;;;;;;0.40;0.20;;;;;;;23.32;66.40;100177.28;5040809;28;20483;-49
2022/06/09 12:02:41;;;;;;;0.40;0.20;;;;;;;23.35;65.28;100182.44;5045922;28;20850;-48
2022/06/09 12:05:36;;;;;;;17.47;1.60;;;;;;;23.15;65.35;100177.78;5047696;28;20463;-48
2022/06/09 12:08:13;;;;;;;0.40;0.20;;;;;;;23.28;65.32;100183.91;5047476;28;20438;-48
2022/06/09 12:11:01;;;;;;;0.40;0.20;;;;;;;23.35;64.89;100176.16;5042774;28;20468;-48
2022/06/09 12:13:34;;;;;;;0.40;0.20;;;;;;;23.58;63.03;100187.81;5047281;28;20484;-48
2022/06/09 12:16:25;;;;;;;0.40;0.20;;;;;;;23.05;62.61;100187.69;5034841;28;20452;-48